sensor_id;sensor_type;location;lat;lon;timestamp;pressure;altitude;pressure_sealevel;temperature;humidity
61113;BME280;47184;57.998;56.184;2023-04-28T00:02:15;99823.13;;;10.03;67.27
61113;BME280;47184;57.998;56.184;2023-04-28T00:04:41;99824.75;;;9.88;67.55
61113;BME280;47184;57.998;56.184;2023-04-28T00:07:07;99838.91;;;9.87;67.24
61113;BME280;47184;57.998;56.184;2023-04-28T00:09:33;99848.09;;;9.75;67.22
61113;BME280;47184;57.998;56.184;2023-04-28T00:12:00;99853.66;;;9.63;67.05
61113;BME280;47184;57.998;56.184;2023-04-28T00:14:27;99854.84;;;9.69;67.28
61113;BME280;47184;57.998;56.184;2023-04-28T00:16:54;99855.13;;;9.66;67.30
61113;BME280;47184;57.998;56.184;2023-04-28T00:19:23;99866.34;;;9.60;66.71
61113;BME280;47184;57.998;56.184;2023-04-28T00:21:49;99863.16;;;9.48;66.56
61113;BME280;47184;57.998;56.184;2023-04-28T00:24:15;99869.03;;;9.42;67.28
61113;BME280;47184;57.998;56.184;2023-04-28T00:26:41;99863.25;;;9.38;67.62
61113;BME280;47184;57.998;56.184;2023-04-28T00:29:07;99872.78;;;9.31;67.60
61113;BME280;47184;57.998;56.184;2023-04-28T00:31:33;99870.75;;;9.25;67.04
61113;BME280;47184;57.998;56.184;2023-04-28T00:34:00;99865.81;;;9.30;66.85
61113;BME280;47184;57.998;56.184;2023-04-28T00:36:26;99879.84;;;9.31;67.11
61113;BME280;47184;57.998;56.184;2023-04-28T00:38:57;99884.84;;;9.16;66.82
61113;BME280;47184;57.998;56.184;2023-04-28T00:41:24;99884.50;;;9.11;66.45
61113;BME280;47184;57.998;56.184;2023-04-28T00:43:50;99896.97;;;9.09;66.60
61113;BME280;47184;57.998;56.184;2023-04-28T00:46:29;99887.97;;;8.93;67.30
61113;BME280;47184;57.998;56.184;2023-04-28T00:48:56;99903.34;;;8.98;66.79
61113;BME280;47184;57.998;56.184;2023-04-28T00:51:23;99907.53;;;8.91;67.03
61113;BME280;47184;57.998;56.184;2023-04-28T00:53:50;99914.47;;;8.92;66.91
61113;BME280;47184;57.998;56.184;2023-04-28T00:56:16;99916.28;;;8.91;66.55
61113;BME280;47184;57.998;56.184;2023-04-28T00:58:42;99924.63;;;8.87;66.87
61113;BME280;47184;57.998;56.184;2023-04-28T01:01:09;99925.16;;;8.90;66.38
61113;BME280;47184;57.998;56.184;2023-04-28T01:03:37;99930.19;;;8.84;66.61
61113;BME280;47184;57.998;56.184;2023-04-28T01:06:05;99938.53;;;8.79;66.38
61113;BME280;47184;57.998;56.184;2023-04-28T01:08:34;99937.56;;;8.80;66.65
61113;BME280;47184;57.998;56.184;2023-04-28T01:11:02;99938.91;;;8.84;65.95
61113;BME280;47184;57.998;56.184;2023-04-28T01:13:56;99944.94;;;8.95;65.96
61113;BME280;47184;57.998;56.184;2023-04-28T01:16:26;99939.91;;;8.83;65.64
61113;BME280;47184;57.998;56.184;2023-04-28T01:18:53;99945.31;;;8.82;65.66
61113;BME280;47184;57.998;56.184;2023-04-28T01:21:33;99948.25;;;8.79;65.86
61113;BME280;47184;57.998;56.184;2023-04-28T01:24:12;99967.28;;;8.90;65.20
61113;BME280;47184;57.998;56.184;2023-04-28T01:26:38;99974.22;;;8.91;65.15
61113;BME280;47184;57.998;56.184;2023-04-28T01:29:05;99972.09;;;8.95;64.87
61113;BME280;47184;57.998;56.184;2023-04-28T01:31:31;99944.56;;;8.72;65.17
61113;BME280;47184;57.998;56.184;2023-04-28T01:33:57;99969.94;;;8.90;65.05
61113;BME280;47184;57.998;56.184;2023-04-28T01:36:24;99970.06;;;8.71;65.45
61113;BME280;47184;57.998;56.184;2023-04-28T01:38:53;99953.13;;;8.56;65.21
61113;BME280;47184;57.998;56.184;2023-04-28T01:41:19;99946.28;;;8.35;64.66
61113;BME280;47184;57.998;56.184;2023-04-28T01:43:45;99980.91;;;8.40;65.07
61113;BME280;47184;57.998;56.184;2023-04-28T01:46:12;99948.78;;;8.09;65.06
61113;BME280;47184;57.998;56.184;2023-04-28T01:48:38;99955.41;;;8.13;65.18
61113;BME280;47184;57.998;56.184;2023-04-28T01:51:05;99990.00;;;8.18;64.54
61113;BME280;47184;57.998;56.184;2023-04-28T01:53:32;99997.94;;;8.09;64.68
61113;BME280;47184;57.998;56.184;2023-04-28T01:55:58;99984.91;;;8.07;64.60
61113;BME280;47184;57.998;56.184;2023-04-28T01:58:25;99984.09;;;8.07;64.03
61113;BME280;47184;57.998;56.184;2023-04-28T02:00:51;99983.31;;;7.97;63.89
61113;BME280;47184;57.998;56.184;2023-04-28T02:03:20;99995.88;;;8.03;64.15
61113;BME280;47184;57.998;56.184;2023-04-28T02:05:46;99992.84;;;7.98;63.72
61113;BME280;47184;57.998;56.184;2023-04-28T02:08:12;99997.41;;;8.05;63.62
61113;BME280;47184;57.998;56.184;2023-04-28T02:10:38;99991.31;;;8.05;63.67
61113;BME280;47184;57.998;56.184;2023-04-28T02:13:05;100013.13;;;8.15;63.71
61113;BME280;47184;57.998;56.184;2023-04-28T02:15:31;100011.47;;;8.14;63.19
61113;BME280;47184;57.998;56.184;2023-04-28T02:17:57;100005.13;;;8.07;62.80
61113;BME280;47184;57.998;56.184;2023-04-28T02:20:25;100021.72;;;8.17;62.84
61113;BME280;47184;57.998;56.184;2023-04-28T02:22:51;100011.75;;;8.11;62.81
61113;BME280;47184;57.998;56.184;2023-04-28T02:25:18;100025.41;;;8.24;62.30
61113;BME280;47184;57.998;56.184;2023-04-28T02:27:44;100046.31;;;8.26;62.52
61113;BME280;47184;57.998;56.184;2023-04-28T02:30:11;100041.06;;;8.26;61.68
61113;BME280;47184;57.998;56.184;2023-04-28T02:32:37;100046.88;;;8.19;62.21
61113;BME280;47184;57.998;56.184;2023-04-28T02:35:03;100050.88;;;8.24;61.79
61113;BME280;47184;57.998;56.184;2023-04-28T02:37:29;100059.47;;;8.26;61.75
61113;BME280;47184;57.998;56.184;2023-04-28T02:39:55;100053.50;;;8.33;61.48
61113;BME280;47184;57.998;56.184;2023-04-28T02:42:22;100025.56;;;8.23;61.42
61113;BME280;47184;57.998;56.184;2023-04-28T02:44:48;100056.34;;;8.50;60.77
61113;BME280;47184;57.998;56.184;2023-04-28T02:47:14;100074.06;;;8.57;61.12
61113;BME280;47184;57.998;56.184;2023-04-28T02:49:40;100066.16;;;8.57;60.95
61113;BME280;47184;57.998;56.184;2023-04-28T02:52:06;100073.63;;;8.62;60.82
61113;BME280;47184;57.998;56.184;2023-04-28T02:54:33;100070.44;;;8.58;60.35
61113;BME280;47184;57.998;56.184;2023-04-28T02:57:01;100080.53;;;8.63;60.38
61113;BME280;47184;57.998;56.184;2023-04-28T02:59:29;100039.19;;;8.36;60.25
61113;BME280;47184;57.998;56.184;2023-04-28T03:01:55;100086.28;;;8.76;59.96
61113;BME280;47184;57.998;56.184;2023-04-28T03:04:22;100056.41;;;8.67;59.47
61113;BME280;47184;57.998;56.184;2023-04-28T03:06:49;100095.88;;;8.95;59.01
61113;BME280;47184;57.998;56.184;2023-04-28T03:09:15;100087.44;;;8.91;59.09
61113;BME280;47184;57.998;56.184;2023-04-28T03:11:42;100095.44;;;9.00;58.91
61113;BME280;47184;57.998;56.184;2023-04-28T03:14:08;100097.25;;;8.99;59.00
61113;BME280;47184;57.998;56.184;2023-04-28T03:16:34;100096.06;;;9.11;59.14
61113;BME280;47184;57.998;56.184;2023-04-28T03:19:00;100061.09;;;9.09;58.93
61113;BME280;47184;57.998;56.184;2023-04-28T03:21:27;100092.00;;;9.53;58.31
61113;BME280;47184;57.998;56.184;2023-04-28T03:23:54;100105.25;;;9.43;57.78
61113;BME280;47184;57.998;56.184;2023-04-28T03:26:21;100082.81;;;9.39;57.69
61113;BME280;47184;57.998;56.184;2023-04-28T03:28:49;100104.88;;;9.56;57.10
61113;BME280;47184;57.998;56.184;2023-04-28T03:31:16;100110.81;;;9.76;56.93
61113;BME280;47184;57.998;56.184;2023-04-28T03:33:43;100115.75;;;9.97;57.16
61113;BME280;47184;57.998;56.184;2023-04-28T03:36:13;100122.31;;;10.18;56.40
61113;BME280;47184;57.998;56.184;2023-04-28T03:38:40;100121.31;;;10.20;55.41
61113;BME280;47184;57.998;56.184;2023-04-28T03:41:06;100121.50;;;10.18;55.81
61113;BME280;47184;57.998;56.184;2023-04-28T03:43:32;100125.94;;;10.17;54.80
61113;BME280;47184;57.998;56.184;2023-04-28T03:46:22;100133.88;;;10.17;55.04
61113;BME280;47184;57.998;56.184;2023-04-28T03:48:49;100141.97;;;10.24;54.68
61113;BME280;47184;57.998;56.184;2023-04-28T03:51:18;100140.09;;;10.34;54.38
61113;BME280;47184;57.998;56.184;2023-04-28T03:53:44;100144.09;;;10.38;54.34
61113;BME280;47184;57.998;56.184;2023-04-28T03:56:11;100138.50;;;10.41;53.62
61113;BME280;47184;57.998;56.184;2023-04-28T03:58:38;100143.97;;;10.48;54.00
61113;BME280;47184;57.998;56.184;2023-04-28T04:01:05;100136.38;;;10.45;53.71
61113;BME280;47184;57.998;56.184;2023-04-28T04:03:31;100148.28;;;10.49;53.76
61113;BME280;47184;57.998;56.184;2023-04-28T04:05:57;100143.25;;;10.38;53.62
61113;BME280;47184;57.998;56.184;2023-04-28T04:08:24;100148.13;;;10.25;53.34
61113;BME280;47184;57.998;56.184;2023-04-28T04:10:50;100144.78;;;9.97;52.06
61113;BME280;47184;57.998;56.184;2023-04-28T04:13:17;100158.91;;;10.13;51.75
61113;BME280;47184;57.998;56.184;2023-04-28T04:15:43;100159.38;;;10.09;51.62
61113;BME280;47184;57.998;56.184;2023-04-28T04:18:10;100158.38;;;10.10;51.56
61113;BME280;47184;57.998;56.184;2023-04-28T04:20:59;100168.09;;;10.09;50.88
61113;BME280;47184;57.998;56.184;2023-04-28T04:23:26;100170.28;;;10.14;51.34
61113;BME280;47184;57.998;56.184;2023-04-28T04:25:52;100176.59;;;10.21;50.91
61113;BME280;47184;57.998;56.184;2023-04-28T04:28:18;100180.88;;;10.40;50.97
61113;BME280;47184;57.998;56.184;2023-04-28T04:30:45;100181.91;;;10.47;50.49
61113;BME280;47184;57.998;56.184;2023-04-28T04:33:11;100179.69;;;10.60;50.18
61113;BME280;47184;57.998;56.184;2023-04-28T04:35:37;100174.81;;;10.74;49.76
61113;BME280;47184;57.998;56.184;2023-04-28T04:38:03;100167.72;;;10.74;50.18
61113;BME280;47184;57.998;56.184;2023-04-28T04:40:30;100196.19;;;10.88;49.90
61113;BME280;47184;57.998;56.184;2023-04-28T04:42:56;100206.03;;;11.12;49.50
61113;BME280;47184;57.998;56.184;2023-04-28T04:45:26;100192.34;;;11.17;49.19
61113;BME280;47184;57.998;56.184;2023-04-28T04:47:53;100203.81;;;11.42;48.38
61113;BME280;47184;57.998;56.184;2023-04-28T04:50:19;100201.69;;;11.54;48.10
61113;BME280;47184;57.998;56.184;2023-04-28T04:52:45;100208.31;;;11.66;47.66
61113;BME280;47184;57.998;56.184;2023-04-28T04:55:11;100194.59;;;11.71;47.90
61113;BME280;47184;57.998;56.184;2023-04-28T04:57:40;100216.84;;;11.94;47.26
61113;BME280;47184;57.998;56.184;2023-04-28T05:00:12;100227.75;;;12.07;47.05
61113;BME280;47184;57.998;56.184;2023-04-28T05:02:40;100226.28;;;12.21;46.81
61113;BME280;47184;57.998;56.184;2023-04-28T05:05:07;100212.56;;;12.18;46.23
61113;BME280;47184;57.998;56.184;2023-04-28T05:07:34;100228.94;;;12.29;45.38
61113;BME280;47184;57.998;56.184;2023-04-28T05:10:01;100234.03;;;12.47;45.17
61113;BME280;47184;57.998;56.184;2023-04-28T05:12:30;100238.16;;;12.66;45.21
61113;BME280;47184;57.998;56.184;2023-04-28T05:14:56;100216.34;;;12.39;44.96
61113;BME280;47184;57.998;56.184;2023-04-28T05:17:22;100233.88;;;12.49;45.07
61113;BME280;47184;57.998;56.184;2023-04-28T05:19:50;100234.03;;;12.39;45.03
61113;BME280;47184;57.998;56.184;2023-04-28T05:22:17;100227.94;;;12.14;45.22
61113;BME280;47184;57.998;56.184;2023-04-28T05:24:44;100228.75;;;12.14;44.92
61113;BME280;47184;57.998;56.184;2023-04-28T05:27:10;100243.81;;;12.22;44.68
61113;BME280;47184;57.998;56.184;2023-04-28T05:29:37;100250.94;;;12.30;44.89
61113;BME280;47184;57.998;56.184;2023-04-28T05:32:03;100255.06;;;12.49;44.65
61113;BME280;47184;57.998;56.184;2023-04-28T05:34:30;100267.41;;;12.89;44.34
61113;BME280;47184;57.998;56.184;2023-04-28T05:36:56;100261.41;;;13.11;43.50
61113;BME280;47184;57.998;56.184;2023-04-28T05:39:26;100253.94;;;13.23;43.46
61113;BME280;47184;57.998;56.184;2023-04-28T05:41:54;100274.78;;;13.66;43.22
61113;BME280;47184;57.998;56.184;2023-04-28T05:44:21;100278.84;;;13.53;42.97
61113;BME280;47184;57.998;56.184;2023-04-28T05:46:47;100288.13;;;13.49;42.98
61113;BME280;47184;57.998;56.184;2023-04-28T05:49:13;100253.34;;;13.44;43.03
61113;BME280;47184;57.998;56.184;2023-04-28T05:51:40;100294.06;;;13.91;42.67
61113;BME280;47184;57.998;56.184;2023-04-28T05:54:06;100252.16;;;13.47;42.22
61113;BME280;47184;57.998;56.184;2023-04-28T05:56:38;100287.81;;;13.52;42.66
61113;BME280;47184;57.998;56.184;2023-04-28T05:59:05;100288.38;;;13.71;42.50
61113;BME280;47184;57.998;56.184;2023-04-28T06:01:31;100284.28;;;13.60;42.20
61113;BME280;47184;57.998;56.184;2023-04-28T06:03:57;100257.81;;;12.96;42.27
61113;BME280;47184;57.998;56.184;2023-04-28T06:06:25;100293.22;;;13.11;42.69
61113;BME280;47184;57.998;56.184;2023-04-28T06:08:53;100296.50;;;13.22;42.60
61113;BME280;47184;57.998;56.184;2023-04-28T06:11:19;100276.19;;;12.89;42.06
61113;BME280;47184;57.998;56.184;2023-04-28T06:13:49;100302.03;;;13.04;42.24
61113;BME280;47184;57.998;56.184;2023-04-28T06:16:17;100305.16;;;13.24;42.29
61113;BME280;47184;57.998;56.184;2023-04-28T06:18:43;100318.59;;;13.61;42.10
61113;BME280;47184;57.998;56.184;2023-04-28T06:21:10;100314.91;;;13.71;41.54
61113;BME280;47184;57.998;56.184;2023-04-28T06:23:36;100322.03;;;13.70;41.56
61113;BME280;47184;57.998;56.184;2023-04-28T06:26:05;100325.91;;;13.91;41.67
61113;BME280;47184;57.998;56.184;2023-04-28T06:28:32;100309.69;;;14.17;41.27
61113;BME280;47184;57.998;56.184;2023-04-28T06:30:58;100321.06;;;14.48;40.84
61113;BME280;47184;57.998;56.184;2023-04-28T06:33:24;100324.69;;;14.55;40.99
61113;BME280;47184;57.998;56.184;2023-04-28T06:36:11;100300.59;;;14.57;40.47
61113;BME280;47184;57.998;56.184;2023-04-28T06:38:42;100309.84;;;14.99;40.17
61113;BME280;47184;57.998;56.184;2023-04-28T06:41:09;100329.75;;;15.18;39.92
61113;BME280;47184;57.998;56.184;2023-04-28T06:43:36;100326.56;;;15.07;39.92
61113;BME280;47184;57.998;56.184;2023-04-28T06:46:07;100303.72;;;15.28;39.65
61113;BME280;47184;57.998;56.184;2023-04-28T06:48:34;100335.44;;;15.89;38.72
61113;BME280;47184;57.998;56.184;2023-04-28T06:51:00;100308.50;;;16.20;37.98
61113;BME280;47184;57.998;56.184;2023-04-28T06:53:27;100342.03;;;16.50;37.63
61113;BME280;47184;57.998;56.184;2023-04-28T06:55:53;100340.56;;;16.48;37.52
61113;BME280;47184;57.998;56.184;2023-04-28T06:58:19;100334.53;;;16.18;37.77
61113;BME280;47184;57.998;56.184;2023-04-28T07:00:47;100319.94;;;16.14;38.32
61113;BME280;47184;57.998;56.184;2023-04-28T07:03:13;100343.34;;;16.18;38.17
61113;BME280;47184;57.998;56.184;2023-04-28T07:05:40;100340.94;;;16.45;37.76
61113;BME280;47184;57.998;56.184;2023-04-28T07:08:06;100350.38;;;16.69;37.61
61113;BME280;47184;57.998;56.184;2023-04-28T07:10:32;100324.19;;;16.51;37.35
61113;BME280;47184;57.998;56.184;2023-04-28T07:12:58;100343.50;;;16.74;37.48
61113;BME280;47184;57.998;56.184;2023-04-28T07:15:24;100319.09;;;16.77;36.90
61113;BME280;47184;57.998;56.184;2023-04-28T07:17:50;100339.25;;;17.08;36.70
61113;BME280;47184;57.998;56.184;2023-04-28T07:20:16;100318.91;;;17.42;36.04
61113;BME280;47184;57.998;56.184;2023-04-28T07:22:43;100342.75;;;17.78;35.16
61113;BME280;47184;57.998;56.184;2023-04-28T07:25:09;100329.50;;;18.18;35.17
61113;BME280;47184;57.998;56.184;2023-04-28T07:27:36;100340.56;;;18.08;34.54
61113;BME280;47184;57.998;56.184;2023-04-28T07:30:02;100300.56;;;17.73;34.95
61113;BME280;47184;57.998;56.184;2023-04-28T07:32:31;100333.41;;;18.28;34.63
61113;BME280;47184;57.998;56.184;2023-04-28T07:34:57;100341.09;;;19.18;33.73
61113;BME280;47184;57.998;56.184;2023-04-28T07:37:23;100333.47;;;20.63;32.37
61113;BME280;47184;57.998;56.184;2023-04-28T07:39:49;100335.38;;;21.97;30.90
61113;BME280;47184;57.998;56.184;2023-04-28T07:42:15;100317.25;;;22.23;30.33
61113;BME280;47184;57.998;56.184;2023-04-28T07:44:43;100341.38;;;22.11;30.43
61113;BME280;47184;57.998;56.184;2023-04-28T07:47:09;100309.09;;;22.11;30.47
61113;BME280;47184;57.998;56.184;2023-04-28T07:49:36;100342.94;;;22.49;30.08
61113;BME280;47184;57.998;56.184;2023-04-28T07:52:02;100344.09;;;22.41;30.16
61113;BME280;47184;57.998;56.184;2023-04-28T07:54:28;100342.72;;;22.50;30.22
61113;BME280;47184;57.998;56.184;2023-04-28T07:56:55;100334.84;;;22.37;30.35
61113;BME280;47184;57.998;56.184;2023-04-28T07:59:25;100334.50;;;21.85;30.11
61113;BME280;47184;57.998;56.184;2023-04-28T08:01:51;100335.88;;;20.96;30.57
61113;BME280;47184;57.998;56.184;2023-04-28T08:04:17;100331.69;;;20.12;31.30
61113;BME280;47184;57.998;56.184;2023-04-28T08:06:43;100336.31;;;19.33;32.03
61113;BME280;47184;57.998;56.184;2023-04-28T08:09:10;100349.34;;;18.83;32.64
61113;BME280;47184;57.998;56.184;2023-04-28T08:11:36;100339.22;;;18.65;32.98
61113;BME280;47184;57.998;56.184;2023-04-28T08:14:02;100347.63;;;18.22;33.51
61113;BME280;47184;57.998;56.184;2023-04-28T08:16:29;100360.84;;;17.82;34.03
61113;BME280;47184;57.998;56.184;2023-04-28T08:18:56;100356.78;;;17.52;34.46
61113;BME280;47184;57.998;56.184;2023-04-28T08:21:23;100340.91;;;17.44;34.49
61113;BME280;47184;57.998;56.184;2023-04-28T08:23:50;100358.63;;;17.58;34.47
61113;BME280;47184;57.998;56.184;2023-04-28T08:26:16;100349.81;;;16.95;35.12
61113;BME280;47184;57.998;56.184;2023-04-28T08:28:42;100360.31;;;16.53;35.74
61113;BME280;47184;57.998;56.184;2023-04-28T08:31:09;100361.44;;;16.23;36.31
61113;BME280;47184;57.998;56.184;2023-04-28T08:33:35;100353.66;;;16.06;36.47
61113;BME280;47184;57.998;56.184;2023-04-28T08:36:01;100361.97;;;15.97;36.88
61113;BME280;47184;57.998;56.184;2023-04-28T08:38:28;100361.91;;;16.12;36.77
61113;BME280;47184;57.998;56.184;2023-04-28T08:40:54;100365.34;;;16.05;36.74
61113;BME280;47184;57.998;56.184;2023-04-28T08:43:21;100372.63;;;15.82;37.35
61113;BME280;47184;57.998;56.184;2023-04-28T08:45:47;100373.25;;;15.99;37.14
61113;BME280;47184;57.998;56.184;2023-04-28T08:48:21;100373.28;;;16.20;37.27
61113;BME280;47184;57.998;56.184;2023-04-28T08:50:51;100381.16;;;16.28;36.98
61113;BME280;47184;57.998;56.184;2023-04-28T08:53:22;100375.56;;;16.23;37.06
61113;BME280;47184;57.998;56.184;2023-04-28T08:55:54;100373.59;;;16.10;37.33
61113;BME280;47184;57.998;56.184;2023-04-28T08:58:28;100391.69;;;16.37;37.02
61113;BME280;47184;57.998;56.184;2023-04-28T09:01:04;100389.81;;;16.52;37.00
61113;BME280;47184;57.998;56.184;2023-04-28T09:03:31;100386.84;;;16.62;37.00
61113;BME280;47184;57.998;56.184;2023-04-28T09:05:58;100388.44;;;16.77;37.01
61113;BME280;47184;57.998;56.184;2023-04-28T09:08:24;100385.13;;;16.97;36.66
61113;BME280;47184;57.998;56.184;2023-04-28T09:11:17;100387.75;;;16.90;36.86
61113;BME280;47184;57.998;56.184;2023-04-28T09:13:44;100384.44;;;16.88;37.01
61113;BME280;47184;57.998;56.184;2023-04-28T09:16:10;100385.56;;;17.00;36.87
61113;BME280;47184;57.998;56.184;2023-04-28T09:18:37;100386.22;;;17.02;37.09
61113;BME280;47184;57.998;56.184;2023-04-28T09:21:08;100385.22;;;16.82;37.24
61113;BME280;47184;57.998;56.184;2023-04-28T09:23:46;100387.06;;;16.24;37.87
61113;BME280;47184;57.998;56.184;2023-04-28T09:26:22;100390.63;;;15.95;38.51
61113;BME280;47184;57.998;56.184;2023-04-28T09:28:50;100405.25;;;15.84;38.93
61113;BME280;47184;57.998;56.184;2023-04-28T09:31:23;100398.53;;;15.88;38.77
61113;BME280;47184;57.998;56.184;2023-04-28T09:33:57;100401.63;;;15.92;38.91
61113;BME280;47184;57.998;56.184;2023-04-28T09:36:27;100398.69;;;16.01;38.69
61113;BME280;47184;57.998;56.184;2023-04-28T09:38:57;100401.09;;;15.96;39.14
61113;BME280;47184;57.998;56.184;2023-04-28T09:41:41;100411.00;;;15.88;39.23
61113;BME280;47184;57.998;56.184;2023-04-28T09:44:18;100413.75;;;15.94;39.21
61113;BME280;47184;57.998;56.184;2023-04-28T09:46:46;100419.06;;;16.09;39.18
61113;BME280;47184;57.998;56.184;2023-04-28T09:49:13;100416.88;;;16.13;39.00
61113;BME280;47184;57.998;56.184;2023-04-28T09:51:40;100420.81;;;16.02;39.40
61113;BME280;47184;57.998;56.184;2023-04-28T09:54:06;100405.81;;;16.16;38.85
61113;BME280;47184;57.998;56.184;2023-04-28T09:56:40;100410.88;;;16.25;38.90
61113;BME280;47184;57.998;56.184;2023-04-28T09:59:07;100400.34;;;16.02;38.84
61113;BME280;47184;57.998;56.184;2023-04-28T10:01:39;100419.09;;;15.79;39.48
61113;BME280;47184;57.998;56.184;2023-04-28T10:04:07;100412.94;;;15.64;39.88
61113;BME280;47184;57.998;56.184;2023-04-28T10:06:36;100400.16;;;15.59;39.65
61113;BME280;47184;57.998;56.184;2023-04-28T10:09:04;100411.50;;;15.76;39.42
61113;BME280;47184;57.998;56.184;2023-04-28T10:11:31;100419.47;;;15.76;39.59
61113;BME280;47184;57.998;56.184;2023-04-28T10:13:58;100424.50;;;15.86;39.44
61113;BME280;47184;57.998;56.184;2023-04-28T10:16:29;100419.28;;;15.93;39.30
61113;BME280;47184;57.998;56.184;2023-04-28T10:18:56;100429.09;;;16.07;39.27
61113;BME280;47184;57.998;56.184;2023-04-28T10:21:24;100420.47;;;16.41;38.86
61113;BME280;47184;57.998;56.184;2023-04-28T10:24:07;100419.09;;;16.45;38.68
61113;BME280;47184;57.998;56.184;2023-04-28T10:27:09;100391.19;;;16.26;38.79
61113;BME280;47184;57.998;56.184;2023-04-28T10:29:36;100419.69;;;16.26;38.73
61113;BME280;47184;57.998;56.184;2023-04-28T10:32:19;100421.38;;;15.97;39.12
61113;BME280;47184;57.998;56.184;2023-04-28T10:34:46;100414.16;;;15.76;39.23
61113;BME280;47184;57.998;56.184;2023-04-28T10:37:13;100406.41;;;15.67;39.83
61113;BME280;47184;57.998;56.184;2023-04-28T10:39:59;100408.50;;;15.56;39.94
61113;BME280;47184;57.998;56.184;2023-04-28T10:42:51;100404.00;;;15.27;39.85
61113;BME280;47184;57.998;56.184;2023-04-28T10:56:18;100408.56;;;15.19;40.51
61113;BME280;47184;57.998;56.184;2023-04-28T10:58:47;100394.00;;;15.59;39.79
61113;BME280;47184;57.998;56.184;2023-04-28T11:04:05;100409.63;;;16.43;39.00
61113;BME280;47184;57.998;56.184;2023-04-28T11:06:37;100401.94;;;17.19;38.11
61113;BME280;47184;57.998;56.184;2023-04-28T11:19:22;100395.28;;;21.86;32.32
61113;BME280;47184;57.998;56.184;2023-04-28T11:21:50;100403.06;;;21.58;32.64
61113;BME280;47184;57.998;56.184;2023-04-28T11:24:16;100381.91;;;21.18;32.57
61113;BME280;47184;57.998;56.184;2023-04-28T11:26:43;100401.75;;;21.17;32.65
61113;BME280;47184;57.998;56.184;2023-04-28T11:29:10;100392.47;;;20.94;32.74
61113;BME280;47184;57.998;56.184;2023-04-28T11:31:37;100399.34;;;20.59;32.67
61113;BME280;47184;57.998;56.184;2023-04-28T11:34:06;100391.13;;;20.47;32.94
61113;BME280;47184;57.998;56.184;2023-04-28T11:36:34;100392.69;;;20.61;32.83
61113;BME280;47184;57.998;56.184;2023-04-28T11:39:06;100368.84;;;20.78;32.19
61113;BME280;47184;57.998;56.184;2023-04-28T11:41:35;100395.06;;;20.76;32.31
61113;BME280;47184;57.998;56.184;2023-04-28T11:44:22;100368.13;;;20.64;32.24
61113;BME280;47184;57.998;56.184;2023-04-28T11:46:50;100384.44;;;20.63;32.07
61113;BME280;47184;57.998;56.184;2023-04-28T11:49:28;100384.72;;;20.55;32.15
61113;BME280;47184;57.998;56.184;2023-04-28T11:52:05;100385.84;;;20.34;32.25
61113;BME280;47184;57.998;56.184;2023-04-28T11:54:32;100386.84;;;19.94;32.47
61113;BME280;47184;57.998;56.184;2023-04-28T11:56:59;100383.03;;;19.57;32.73
61113;BME280;47184;57.998;56.184;2023-04-28T11:59:35;100380.63;;;19.29;33.19
61113;BME280;47184;57.998;56.184;2023-04-28T12:02:06;100388.03;;;19.20;33.03
61113;BME280;47184;57.998;56.184;2023-04-28T12:04:37;100388.03;;;18.94;33.37
61113;BME280;47184;57.998;56.184;2023-04-28T12:07:09;100384.50;;;18.67;33.51
61113;BME280;47184;57.998;56.184;2023-04-28T12:09:37;100359.16;;;18.43;33.86
61113;BME280;47184;57.998;56.184;2023-04-28T12:12:05;100386.13;;;18.41;33.50
61113;BME280;47184;57.998;56.184;2023-04-28T12:15:08;100393.91;;;18.36;33.64
61113;BME280;47184;57.998;56.184;2023-04-28T12:17:40;100392.47;;;18.34;33.62
61113;BME280;47184;57.998;56.184;2023-04-28T12:20:33;100390.81;;;18.26;33.66
61113;BME280;47184;57.998;56.184;2023-04-28T12:22:59;100394.91;;;18.22;33.56
61113;BME280;47184;57.998;56.184;2023-04-28T12:25:27;100394.69;;;18.23;33.50
61113;BME280;47184;57.998;56.184;2023-04-28T12:28:06;100381.34;;;18.23;33.19
61113;BME280;47184;57.998;56.184;2023-04-28T12:30:35;100374.16;;;18.30;33.19
61113;BME280;47184;57.998;56.184;2023-04-28T12:33:04;100368.97;;;18.16;33.25
61113;BME280;47184;57.998;56.184;2023-04-28T12:35:30;100377.41;;;18.19;33.28
61113;BME280;47184;57.998;56.184;2023-04-28T12:37:56;100358.03;;;17.97;33.18
61113;BME280;47184;57.998;56.184;2023-04-28T12:40:23;100392.56;;;17.99;33.32
61113;BME280;47184;57.998;56.184;2023-04-28T12:42:49;100387.78;;;17.88;33.59
61113;BME280;47184;57.998;56.184;2023-04-28T12:45:16;100389.34;;;17.75;33.47
61113;BME280;47184;57.998;56.184;2023-04-28T12:47:42;100365.09;;;17.36;33.64
61113;BME280;47184;57.998;56.184;2023-04-28T12:50:08;100383.34;;;17.32;33.78
61113;BME280;47184;57.998;56.184;2023-04-28T12:52:35;100371.31;;;17.15;33.95
61113;BME280;47184;57.998;56.184;2023-04-28T12:55:03;100377.25;;;16.89;34.05
61113;BME280;47184;57.998;56.184;2023-04-28T12:57:31;100368.69;;;16.72;34.52
61113;BME280;47184;57.998;56.184;2023-04-28T12:59:58;100343.81;;;16.43;34.71
61113;BME280;47184;57.998;56.184;2023-04-28T13:02:24;100361.75;;;16.56;34.60
61113;BME280;47184;57.998;56.184;2023-04-28T13:04:50;100370.69;;;16.48;34.73
61113;BME280;47184;57.998;56.184;2023-04-28T13:07:17;100379.16;;;16.52;34.53
61113;BME280;47184;57.998;56.184;2023-04-28T13:09:43;100370.13;;;16.31;34.73
61113;BME280;47184;57.998;56.184;2023-04-28T13:12:10;100387.91;;;16.46;34.46
61113;BME280;47184;57.998;56.184;2023-04-28T13:14:39;100371.53;;;16.49;34.34
61113;BME280;47184;57.998;56.184;2023-04-28T13:17:05;100373.25;;;16.56;34.37